메인 페이지
METAR-TAF:

METAR-TAF

공항 :

킨샤사, 콩고

위도: 04-23S, 경도: 015-26E, 고도: 309m

현재 날씨관측

예보는 1 시간 5분 전, 02:00시(UTC)에 발표되었습니다.
무풍
온도 24°C
습도 83%
기압 1012 hPa
시정: 6000m
고도 1600ft 상공 구름 많음

METAR: FZAA 160200Z 00000KT 6000 BKN016 24/21 Q1012 NOSIG

시각: 04:05 (03:05 UTC)

예보

예보는 4 시간 5분 전, 23:00시(UTC)에 발표되었습니다.
예보 대상 시간: 16일 00시부터 17일 06시까지 (UTC)
4kt
시정: 6000m
고도 1800ft 상공 구름 보통
전환 중
16일 01시부터 16일 03시까지 (UTC)
10kt
고도 1600ft 상공 구름 조금
고도 2800ft 상공 구름 조금, 적란운.
확률 30% :
일시적
16일 03시부터 16일 07시까지 (UTC)
시정: 4000m
뇌우, 비
전환 중
16일 09시부터 16일 11시까지 (UTC)
고도 2300ft 상공 구름 보통
확률 30% :
일시적
16일 16시부터 16일 20시까지 (UTC)
남남서4kt
고도 2000ft 상공 구름 조금
고도 3000ft 상공 구름 조금, 적란운.

TAF: FZAA 152300Z 1600/1706 18004KT 6000 SCT018 BECMG 1601/1603 26010KT FEW016 FEW028CB PROB30 TEMPO 1603/1607 4000 TSRA BECMG 1609/1611 SCT023 PROB30 TEMPO 1616/1620 20004KT FEW020 FEW030CB

4,000개 이상의 공항 관측 자료 및 예보 (METAR 및 TAF 보고).

지도상에서 검색 가능한 기상관측소가 노란 점과 빨간 점으로 표시되어 있습니다.

기상관측소 명을 보려면 표시 위로 마우스를 이동하세요.

날씨 관측과 예보를 보려면 클릭하세요.

지도 변경 : 확대하려면 엑스 표시가 있는 녹색 버튼, 축소하려면 빼기 표시가 있는 녹색 버튼, 다음 페이지의 지도를 보려면 녹색 화살표를 클릭하세요.


METAR-TAF: